Time;durP1;ratioP1;P1;durP2;ratioP2;P2;SDS_P1;SDS_P2;PMS_P1;PMS_P2;Temp;Humidity;BMP_temperature;BMP_pressure;BME280_temperature;BME280_humidity;BME280_pressure;Samples;Min_cycle;Max_cycle;Signal;HPM_P1;HPM_P2
2022/06/25 00:01:13;;;;;;;4.40;3.15;;;;;;;18.15;100.00;99978.56;8297849;28;20120;-61
2022/06/25 00:05:29;;;;;;;5.70;2.58;;;;;;;18.14;100.00;99979.59;8322727;28;20128;-61
2022/06/25 00:09:29;;;;;;;4.38;2.95;;;;;;;17.87;100.00;99976.91;8319593;28;20121;-61
2022/06/25 00:13:30;;;;;;;4.47;2.78;;;;;;;17.71;100.00;99975.31;8324285;28;20041;-61
2022/06/25 00:17:31;;;;;;;3.50;2.17;;;;;;;17.55;100.00;99976.47;8320943;28;20049;-61
2022/06/25 00:21:31;;;;;;;8.40;2.20;;;;;;;17.45;100.00;99972.41;8328954;28;20379;-61
2022/06/25 00:25:32;;;;;;;6.10;2.78;;;;;;;17.28;100.00;99984.59;8329252;28;20029;-61
2022/06/25 00:29:32;;;;;;;4.40;2.85;;;;;;;17.28;100.00;99990.06;8314436;28;20038;-61
2022/06/25 00:33:33;;;;;;;6.35;2.78;;;;;;;17.33;100.00;99990.34;8315433;28;20041;-61
2022/06/25 00:37:33;;;;;;;5.72;3.28;;;;;;;17.50;100.00;99994.50;8328745;28;20056;-61
2022/06/25 00:41:33;;;;;;;5.20;3.10;;;;;;;17.41;100.00;100001.13;8324819;28;20041;-61
2022/06/25 00:45:34;;;;;;;8.50;3.00;;;;;;;17.50;100.00;100003.56;8325356;28;20099;-61
2022/06/25 00:49:34;;;;;;;5.22;2.90;;;;;;;17.31;100.00;100000.59;8311655;28;20284;-61
2022/06/25 00:53:35;;;;;;;4.73;3.10;;;;;;;17.34;100.00;100005.69;8312293;28;20045;-61
2022/06/25 00:57:40;;;;;;;5.53;2.60;;;;;;;18.02;100.00;100000.34;8312241;28;20668;-62
2022/06/25 01:01:41;;;;;;;3.30;2.40;;;;;;;18.44;100.00;100000.22;8310840;28;20037;-61
2022/06/25 01:05:41;;;;;;;7.30;2.65;;;;;;;18.58;100.00;100001.97;8325176;28;20073;-61
2022/06/25 01:09:44;;;;;;;4.90;2.25;;;;;;;18.55;100.00;100018.81;8326764;28;20046;-61
2022/06/25 01:13:45;;;;;;;4.20;2.15;;;;;;;18.41;100.00;100017.03;8359095;28;20034;-61
2022/06/25 01:17:49;;;;;;;5.20;2.30;;;;;;;18.20;100.00;100030.78;8359256;28;20037;-61
2022/06/25 01:21:49;;;;;;;5.97;2.28;;;;;;;18.09;100.00;100038.72;8322613;28;20335;-61
2022/06/25 01:25:50;;;;;;;9.63;2.38;;;;;;;17.94;100.00;100036.09;8327485;28;20037;-61
2022/06/25 01:29:50;;;;;;;6.43;2.47;;;;;;;17.95;100.00;100037.78;8309849;28;20595;-61
2022/06/25 01:33:51;;;;;;;5.05;2.20;;;;;;;17.93;100.00;100048.06;8323909;28;20125;-61
2022/06/25 01:37:51;;;;;;;9.65;2.60;;;;;;;17.93;100.00;100056.25;8326689;28;20044;-61
2022/06/25 01:41:51;;;;;;;6.53;2.53;;;;;;;17.95;100.00;100058.78;8326370;28;20037;-62
2022/06/25 01:45:52;;;;;;;6.85;2.30;;;;;;;17.89;100.00;100054.97;8341733;28;20326;-62
2022/06/25 01:49:52;;;;;;;4.78;2.83;;;;;;;18.00;100.00;100062.66;8341258;28;20042;-62
2022/06/25 01:53:52;;;;;;;11.47;2.77;;;;;;;18.02;100.00;100060.53;8337150;28;20541;-61
2022/06/25 01:57:53;;;;;;;15.65;2.60;;;;;;;17.79;100.00;100065.44;8322260;28;20364;-61
2022/06/25 02:01:54;;;;;;;8.88;3.15;;;;;;;17.42;100.00;100063.78;8310650;28;20132;-61
2022/06/25 02:05:57;;;;;;;16.48;3.03;;;;;;;17.24;100.00;100065.28;8326415;28;20093;-61
2022/06/25 02:09:57;;;;;;;7.05;3.65;;;;;;;17.11;100.00;100071.44;8326012;28;20037;-61
2022/06/25 02:13:58;;;;;;;9.95;2.97;;;;;;;17.04;100.00;100076.00;8322236;28;20041;-62
2022/06/25 02:17:59;;;;;;;13.65;3.72;;;;;;;17.09;100.00;100079.00;8315377;28;20030;-60
2022/06/25 02:21:59;;;;;;;15.30;3.65;;;;;;;17.05;100.00;100074.94;8310701;28;20029;-60
2022/06/25 02:26:00;;;;;;;13.40;4.50;;;;;;;17.11;100.00;100070.63;8307074;28;20053;-60
2022/06/25 02:30:00;;;;;;;15.43;3.60;;;;;;;17.18;100.00;100082.44;8306327;28;20649;-61
2022/06/25 02:34:01;;;;;;;13.27;4.07;;;;;;;17.13;100.00;100079.44;8322120;28;20280;-61
2022/06/25 02:38:01;;;;;;;17.27;4.03;;;;;;;17.05;100.00;100082.31;8324184;28;20119;-61
2022/06/25 02:42:01;;;;;;;19.58;4.90;;;;;;;16.93;100.00;100079.22;8324338;28;20276;-61
2022/06/25 02:46:02;;;;;;;22.98;5.18;;;;;;;16.86;100.00;100096.56;8315727;28;20038;-61
2022/06/25 02:50:03;;;;;;;12.95;3.88;;;;;;;16.79;100.00;100092.91;8310326;28;20132;-62
2022/06/25 02:54:03;;;;;;;16.92;4.63;;;;;;;16.74;100.00;100098.09;8319157;28;20390;-62
2022/06/25 02:59:05;;;;;;;13.20;3.92;;;;;;;16.72;100.00;100100.16;8322712;28;20037;-62
2022/06/25 03:02:24;;;;;;;13.48;4.30;;;;;;;16.65;100.00;100112.88;8310376;28;20037;-62
2022/06/25 03:06:25;;;;;;;18.45;5.35;;;;;;;16.70;100.00;100110.41;8325772;28;20040;-62
2022/06/25 03:10:46;;;;;;;10.40;4.45;;;;;;;16.62;100.00;100107.81;8321215;28;20041;-62
2022/06/25 03:14:46;;;;;;;20.15;4.90;;;;;;;16.67;100.00;100116.25;8260257;28;20042;-62
2022/06/25 03:18:47;;;;;;;18.17;3.92;;;;;;;16.56;100.00;100119.47;8290041;28;20513;-62
2022/06/25 03:22:47;;;;;;;20.10;4.15;;;;;;;16.67;100.00;100116.25;8325564;28;20548;-62
2022/06/25 03:26:47;;;;;;;12.80;4.63;;;;;;;16.76;100.00;100126.03;8325462;28;20117;-62
2022/06/25 03:30:48;;;;;;;7.13;3.58;;;;;;;16.85;100.00;100123.03;8301307;28;20277;-62
2022/06/25 03:34:48;;;;;;;7.07;3.30;;;;;;;16.98;100.00;100119.59;8331606;28;20569;-62
2022/06/25 03:38:49;;;;;;;15.15;4.20;;;;;;;17.06;100.00;100124.97;8318010;28;20033;-62
2022/06/25 03:42:49;;;;;;;13.65;4.22;;;;;;;16.85;100.00;100135.81;8346461;28;20509;-62
2022/06/25 03:46:49;;;;;;;23.00;4.15;;;;;;;16.60;100.00;100131.72;8322450;28;20132;-60
2022/06/25 03:50:50;;;;;;;20.30;5.20;;;;;;;16.41;100.00;100133.06;8314088;28;20097;-60
2022/06/25 03:54:50;;;;;;;23.05;5.25;;;;;;;16.41;100.00;100143.16;8331163;28;20760;-61
2022/06/25 03:58:51;;;;;;;20.13;4.95;;;;;;;16.47;100.00;100142.44;8321556;28;20049;-61
2022/06/25 04:02:52;;;;;;;21.70;4.70;;;;;;;16.59;100.00;100140.94;8304399;28;20037;-61
2022/06/25 04:06:52;;;;;;;15.98;4.05;;;;;;;16.70;100.00;100148.63;8314463;28;20083;-61
2022/06/25 04:10:52;;;;;;;14.82;4.43;;;;;;;16.80;100.00;100144.59;8313431;28;20048;-61
2022/06/25 04:14:53;;;;;;;16.35;3.78;;;;;;;16.95;100.00;100152.75;8329138;28;20064;-61
2022/06/25 04:18:53;;;;;;;20.63;3.92;;;;;;;17.08;100.00;100150.22;8319175;28;20041;-61
2022/06/25 04:22:54;;;;;;;12.55;4.13;;;;;;;17.25;100.00;100146.19;8356861;28;20052;-61
2022/06/25 04:26:54;;;;;;;15.95;4.15;;;;;;;17.40;100.00;100152.47;8323011;28;20045;-61
2022/06/25 04:30:55;;;;;;;9.60;3.33;;;;;;;17.52;100.00;100146.34;8292108;28;20869;-61
2022/06/25 04:34:55;;;;;;;10.57;3.50;;;;;;;17.79;100.00;100142.00;8316246;28;20038;-61
2022/06/25 04:38:56;;;;;;;14.60;3.33;;;;;;;17.92;100.00;100150.31;8320098;28;20287;-61
2022/06/25 04:42:56;;;;;;;12.80;3.45;;;;;;;17.88;100.00;100154.50;8339965;28;20840;-61
2022/06/25 04:46:56;;;;;;;11.95;3.28;;;;;;;18.03;100.00;100155.28;8323404;28;20029;-61
2022/06/25 04:50:57;;;;;;;12.05;3.92;;;;;;;18.08;100.00;100147.28;8321917;28;20048;-61
2022/06/25 04:54:57;;;;;;;13.75;3.78;;;;;;;18.13;100.00;100158.50;8319130;28;20037;-61
2022/06/25 04:58:58;;;;;;;9.10;3.55;;;;;;;18.13;100.00;100155.75;8310563;28;20041;-61
2022/06/25 05:02:58;;;;;;;17.30;3.55;;;;;;;18.35;100.00;100154.66;8318294;28;20037;-61
2022/06/25 05:06:59;;;;;;;11.57;4.13;;;;;;;18.56;100.00;100157.38;8330803;28;20034;-61
2022/06/25 05:10:59;;;;;;;11.85;3.22;;;;;;;18.77;100.00;100160.06;8312550;28;20292;-61
2022/06/25 05:14:59;;;;;;;10.63;3.50;;;;;;;18.93;100.00;100151.50;8319822;28;20043;-62
2022/06/25 05:19:00;;;;;;;13.20;3.75;;;;;;;19.28;100.00;100153.16;8318615;28;20272;-62
2022/06/25 05:23:00;;;;;;;7.30;3.03;;;;;;;19.52;100.00;100176.44;8324015;28;20034;-62
2022/06/25 05:27:01;;;;;;;9.10;2.90;;;;;;;19.82;100.00;100174.19;8328271;28;20038;-62
2022/06/25 05:31:01;;;;;;;5.87;2.20;;;;;;;19.89;100.00;100172.31;8300999;28;20328;-62
2022/06/25 05:35:02;;;;;;;8.80;2.55;;;;;;;20.06;100.00;100184.59;8357530;28;20048;-61
2022/06/25 05:39:03;;;;;;;4.95;2.47;;;;;;;20.15;100.00;100189.66;8322330;28;20042;-61
2022/06/25 05:43:03;;;;;;;3.37;2.20;;;;;;;20.56;96.92;100186.72;8327393;28;20045;-61
2022/06/25 05:47:04;;;;;;;5.10;2.35;;;;;;;20.79;94.53;100187.09;8314166;28;20864;-61
2022/06/25 05:51:04;;;;;;;4.60;2.30;;;;;;;20.93;94.09;100188.75;8309650;28;20034;-62
2022/06/25 05:55:06;;;;;;;3.92;2.10;;;;;;;21.07;92.28;100190.44;8317982;28;20444;-61
2022/06/25 05:59:06;;;;;;;5.18;2.38;;;;;;;21.24;91.83;100191.66;8311734;28;20069;-61
2022/06/25 06:03:07;;;;;;;4.50;2.08;;;;;;;21.55;90.49;100199.13;8317235;28;20046;-61
2022/06/25 06:07:07;;;;;;;4.30;1.80;;;;;;;21.77;88.67;100204.13;8309508;28;20030;-61
2022/06/25 06:11:08;;;;;;;7.20;1.95;;;;;;;22.08;87.08;100201.38;8316475;28;20038;-61
2022/06/25 06:15:09;;;;;;;7.20;1.80;;;;;;;22.29;85.79;100208.47;8320296;28;20120;-61
2022/06/25 06:19:10;;;;;;;4.40;1.58;;;;;;;22.42;82.04;100200.91;8317890;28;20745;-61
2022/06/25 06:23:10;;;;;;;5.07;1.40;;;;;;;22.49;82.71;100204.47;8317783;28;20440;-61
2022/06/25 06:27:11;;;;;;;6.13;1.73;;;;;;;22.70;81.78;100212.38;8310918;28;20091;-61
2022/06/25 06:31:11;;;;;;;5.43;1.55;;;;;;;22.94;81.65;100216.97;8309323;28;20034;-61
2022/06/25 06:35:12;;;;;;;2.95;1.02;;;;;;;23.00;79.13;100210.56;8322395;28;20505;-61
2022/06/25 06:39:12;;;;;;;4.95;1.40;;;;;;;23.21;78.29;100215.63;8320214;28;20503;-62
2022/06/25 06:43:12;;;;;;;4.28;1.58;;;;;;;23.33;77.13;100229.56;8322196;28;20039;-62
2022/06/25 06:47:13;;;;;;;7.00;1.10;;;;;;;23.41;76.94;100222.84;8305108;28;20037;-62
2022/06/25 06:51:13;;;;;;;3.08;1.20;;;;;;;23.54;75.59;100225.47;8319215;28;20408;-62
2022/06/25 06:55:13;;;;;;;2.63;1.35;;;;;;;23.61;76.52;100232.59;8318187;28;20044;-62
2022/06/25 06:59:14;;;;;;;8.07;1.07;;;;;;;23.62;76.04;100233.44;8304754;28;20042;-62
2022/06/25 07:03:14;;;;;;;3.80;1.23;;;;;;;23.78;73.34;100230.88;8271265;28;20301;-62
2022/06/25 07:07:15;;;;;;;2.70;0.80;;;;;;;23.97;72.25;100237.25;8286953;28;20265;-62
2022/06/25 07:11:30;;;;;;;2.40;1.20;;;;;;;24.03;73.22;100230.78;8311791;28;20284;-62
2022/06/25 07:15:31;;;;;;;5.30;1.30;;;;;;;24.12;71.52;100218.31;8309299;28;20034;-62
2022/06/25 07:19:31;;;;;;;7.47;1.15;;;;;;;24.41;68.29;100242.31;8310426;28;20048;-62
2022/06/25 07:23:31;;;;;;;2.55;0.90;;;;;;;24.55;69.78;100238.25;8322424;28;20083;-62
2022/06/25 07:27:32;;;;;;;3.63;0.87;;;;;;;24.63;67.66;100232.38;8326655;28;20037;-62
2022/06/25 07:31:32;;;;;;;2.58;0.93;;;;;;;24.71;69.07;100230.16;8310184;28;20334;-62
2022/06/25 07:35:33;;;;;;;2.63;1.00;;;;;;;24.77;67.08;100222.81;8326614;28;20037;-62
2022/06/25 07:39:34;;;;;;;2.40;0.97;;;;;;;24.72;66.50;100230.97;8321621;28;20290;-62
2022/06/25 07:43:34;;;;;;;5.55;1.20;;;;;;;24.49;67.46;100225.38;8314379;28;20141;-62
2022/06/25 07:47:37;;;;;;;4.60;0.98;;;;;;;24.75;68.05;100231.34;8317599;28;20089;-62
2022/06/25 07:52:08;;;;;;;4.95;1.45;;;;;;;24.97;66.93;100217.75;8320769;28;20054;-62
2022/06/25 07:55:57;;;;;;;2.75;1.00;;;;;;;25.11;64.79;100226.63;8324245;28;20587;-62
2022/06/25 07:59:58;;;;;;;8.57;1.27;;;;;;;24.92;64.23;100214.88;8309256;28;20438;-63
2022/06/25 08:03:58;;;;;;;4.05;0.95;;;;;;;25.38;66.46;100223.16;8322394;28;20045;-62
2022/06/25 08:07:59;;;;;;;3.33;1.00;;;;;;;25.05;64.87;100231.22;8315030;28;20440;-62
2022/06/25 08:12:00;;;;;;;5.75;1.05;;;;;;;24.25;64.92;100240.22;8314266;28;20362;-62
2022/06/25 08:16:00;;;;;;;4.55;1.02;;;;;;;24.37;66.31;100233.63;8318485;28;20033;-62
2022/06/25 08:20:01;;;;;;;3.47;0.80;;;;;;;24.92;65.51;100232.28;8350820;28;20041;-62
2022/06/25 08:24:02;;;;;;;3.80;1.02;;;;;;;25.52;61.59;100232.03;8319840;28;20103;-62
2022/06/25 08:28:03;;;;;;;6.57;1.65;;;;;;;25.72;61.74;100235.22;8317397;28;20512;-62
2022/06/25 08:32:03;;;;;;;3.63;0.93;;;;;;;25.20;62.87;100228.81;8320471;28;20069;-62
2022/06/25 08:36:04;;;;;;;2.45;0.82;;;;;;;25.29;62.88;100224.59;8316763;28;20049;-62
2022/06/25 08:40:06;;;;;;;4.88;0.80;;;;;;;25.28;63.69;100227.59;8312128;28;20046;-63
2022/06/25 08:44:07;;;;;;;5.20;1.55;;;;;;;24.83;63.64;100216.31;8321215;28;20064;-62
2022/06/25 08:48:15;;;;;;;1.40;0.80;;;;;;;24.82;64.46;100222.91;8318129;28;20033;-62
2022/06/25 08:52:18;;;;;;;3.78;0.90;;;;;;;25.34;64.46;100218.34;8321428;28;20466;-63
2022/06/25 08:56:19;;;;;;;5.90;0.82;;;;;;;25.71;65.67;100214.97;8309855;28;20644;-63
2022/06/25 09:00:19;;;;;;;3.03;0.90;;;;;;;25.51;63.14;100213.72;8303501;28;20560;-63
2022/06/25 09:04:20;;;;;;;6.82;1.05;;;;;;;25.88;65.82;100221.44;8303140;28;20411;-62
2022/06/25 09:08:20;;;;;;;3.70;1.07;;;;;;;25.64;62.71;100214.28;8311226;28;20037;-62
2022/06/25 09:12:22;;;;;;;3.20;0.70;;;;;;;25.94;63.21;100209.38;8333814;28;20284;-62
2022/06/25 09:16:24;;;;;;;5.63;1.10;;;;;;;26.59;60.96;100216.13;8305006;28;20541;-62
2022/06/25 09:20:24;;;;;;;3.25;1.08;;;;;;;26.45;60.93;100211.16;8303436;28;20033;-62
2022/06/25 09:24:46;;;;;;;5.00;0.93;;;;;;;26.63;60.16;100202.63;8311647;28;20040;-62
2022/06/25 09:28:46;;;;;;;4.63;0.80;;;;;;;26.82;58.34;100201.28;8304256;28;20264;-62
2022/06/25 09:32:51;;;;;;;4.85;1.48;;;;;;;26.53;59.38;100202.44;8317206;28;20057;-62
2022/06/25 09:36:51;;;;;;;2.40;0.90;;;;;;;26.71;59.15;100197.50;8299605;28;20529;-62
2022/06/25 09:40:57;;;;;;;3.05;0.80;;;;;;;27.00;57.74;100191.81;8300387;28;20556;-62
2022/06/25 09:45:09;;;;;;;2.45;1.00;;;;;;;26.64;58.84;100194.06;8321601;28;20042;-62
2022/06/25 09:49:22;;;;;;;4.43;1.33;;;;;;;26.69;60.48;100196.06;8296201;28;20065;-62
2022/06/25 09:53:25;;;;;;;3.60;0.73;;;;;;;26.92;57.99;100195.03;8300990;28;20484;-62
2022/06/25 09:57:27;;;;;;;3.65;1.05;;;;;;;27.64;58.03;100199.41;8305825;28;20064;-62
2022/06/25 10:01:30;;;;;;;2.88;0.88;;;;;;;27.57;54.60;100198.75;8300391;28;20565;-62
2022/06/25 10:05:37;;;;;;;3.42;1.08;;;;;;;28.22;55.27;100185.63;8297851;28;20037;-62
2022/06/25 10:09:40;;;;;;;2.17;0.70;;;;;;;29.75;52.51;100185.31;8292941;28;20050;-61
2022/06/25 10:13:41;;;;;;;2.08;0.63;;;;;;;30.03;50.75;100182.88;8294458;28;20108;-61
2022/06/25 10:17:44;;;;;;;3.00;0.90;;;;;;;30.33;48.65;100180.19;8294512;28;20129;-61
2022/06/25 10:21:44;;;;;;;2.10;0.73;;;;;;;31.02;49.76;100169.28;8296468;28;20046;-61
2022/06/25 10:25:46;;;;;;;1.27;0.70;;;;;;;29.46;50.88;100179.31;8290955;28;20555;-61
2022/06/25 10:30:02;;;;;;;1.75;0.95;;;;;;;26.81;56.04;100172.66;8294813;28;20049;-61
2022/06/25 10:34:04;;;;;;;1.85;0.68;;;;;;;28.20;55.57;100177.53;8306178;28;20041;-61
2022/06/25 10:43:24;;;;;;;1.63;0.60;;;;;;;26.40;56.08;100178.63;8386352;27;20390;-60
2022/06/25 10:46:44;;;;;;;3.78;0.77;;;;;;;26.04;57.92;100179.09;8374694;27;20789;-61
2022/06/25 10:50:47;;;;;;;1.63;0.75;;;;;;;28.74;54.42;100181.09;8380931;27;20396;-62
2022/06/25 10:54:47;;;;;;;4.60;0.95;;;;;;;27.84;54.67;100177.41;8369699;27;20063;-62
2022/06/25 10:58:49;;;;;;;3.07;0.70;;;;;;;26.81;56.35;100178.22;8359599;27;20040;-62
2022/06/25 11:02:53;;;;;;;5.97;1.05;;;;;;;26.90;57.05;100175.03;8367585;27;20488;-62
2022/06/25 11:07:09;;;;;;;1.65;0.80;;;;;;;26.73;55.45;100164.81;8358866;28;20041;-61
2022/06/25 11:11:10;;;;;;;2.22;0.70;;;;;;;27.01;55.97;100165.75;8361534;27;20076;-61
2022/06/25 11:15:11;;;;;;;1.65;0.70;;;;;;;27.17;55.00;100167.66;8361820;27;20044;-61
2022/06/25 11:19:11;;;;;;;2.67;0.68;;;;;;;27.86;54.50;100162.19;8360515;27;20678;-61
2022/06/25 11:23:14;;;;;;;3.80;0.80;;;;;;;27.86;54.72;100164.09;8354235;27;20056;-61
2022/06/25 11:28:52;;;;;;;4.47;0.70;;;;;;;27.55;54.29;100175.94;8367565;28;20514;-61
2022/06/25 11:31:35;;;;;;;3.92;0.75;;;;;;;27.33;55.84;100166.78;8365524;27;20130;-62
2022/06/25 11:35:40;;;;;;;3.97;1.00;;;;;;;26.92;56.96;100167.28;8362900;27;20129;-62
2022/06/25 11:39:41;;;;;;;1.25;0.75;;;;;;;26.63;56.34;100178.47;8360434;28;20052;-61
2022/06/25 11:43:41;;;;;;;1.30;0.88;;;;;;;26.67;55.62;100176.91;8361548;27;20064;-62
2022/06/25 11:47:42;;;;;;;2.92;1.15;;;;;;;26.64;56.99;100179.34;8367683;28;20033;-62
2022/06/25 11:51:44;;;;;;;3.88;0.95;;;;;;;26.47;58.46;100170.97;8349041;28;20060;-61
2022/06/25 11:56:02;;;;;;;4.47;0.90;;;;;;;26.21;59.20;100191.06;8347998;28;20651;-62
2022/06/25 12:00:03;;;;;;;2.65;0.77;;;;;;;25.85;60.18;100177.59;8346067;28;20048;-62
2022/06/25 12:04:03;;;;;;;3.20;0.90;;;;;;;25.65;59.26;100188.28;8344157;28;20103;-62
2022/06/25 12:08:05;;;;;;;3.30;1.00;;;;;;;25.36;60.41;100183.78;8340941;28;20544;-62
2022/06/25 12:12:05;;;;;;;4.68;0.93;;;;;;;25.25;61.57;100179.09;8344879;28;20279;-62
2022/06/25 12:16:06;;;;;;;3.88;0.75;;;;;;;25.41;59.71;100180.28;8341124;28;20136;-62
2022/06/25 12:20:11;;;;;;;3.63;0.80;;;;;;;25.28;61.01;100186.06;8342641;28;20056;-62
2022/06/25 12:24:14;;;;;;;3.53;0.80;;;;;;;25.44;60.17;100177.88;8350604;28;20044;-62
2022/06/25 12:28:15;;;;;;;5.65;1.13;;;;;;;25.76;60.70;100173.53;8360137;28;20029;-62
2022/06/25 12:32:16;;;;;;;3.10;0.80;;;;;;;26.34;60.62;100171.31;8355027;28;20041;-62
2022/06/25 12:36:18;;;;;;;2.15;0.80;;;;;;;26.11;59.44;100171.50;8356755;28;20055;-62
2022/06/25 12:40:23;;;;;;;2.95;0.80;;;;;;;25.83;59.32;100174.22;8335968;28;20049;-61
2022/06/25 12:44:31;;;;;;;1.83;1.00;;;;;;;25.71;59.31;100176.19;8361767;28;20044;-61
2022/06/25 12:48:31;;;;;;;2.63;1.70;;;;;;;25.80;58.89;100171.13;8349748;28;20421;-61
2022/06/25 12:52:37;;;;;;;1.67;0.60;;;;;;;25.76;59.08;100173.53;8360189;28;20044;-61
2022/06/25 12:56:38;;;;;;;1.90;0.80;;;;;;;25.72;59.66;100174.28;8349090;28;20516;-61
2022/06/25 13:00:39;;;;;;;3.47;0.70;;;;;;;25.96;58.50;100173.09;8355893;28;20453;-61
2022/06/25 13:04:41;;;;;;;2.00;0.98;;;;;;;26.13;58.81;100177.59;8358124;28;20043;-61
2022/06/25 13:08:42;;;;;;;3.05;0.70;;;;;;;26.31;59.52;100166.28;8354483;28;20057;-62
2022/06/25 13:12:44;;;;;;;2.00;0.50;;;;;;;26.05;59.66;100178.03;8357988;28;20044;-62
2022/06/25 13:16:44;;;;;;;1.83;0.95;;;;;;;25.99;59.86;100172.63;8348288;28;20684;-62
2022/06/25 13:20:46;;;;;;;4.67;0.87;;;;;;;25.96;60.38;100167.56;8354546;28;20455;-62
2022/06/25 13:24:47;;;;;;;2.42;0.85;;;;;;;25.95;59.81;100172.25;8346264;28;20755;-62
2022/06/25 13:28:48;;;;;;;4.35;0.65;;;;;;;25.69;60.11;100169.25;8353393;28;20340;-62
2022/06/25 13:32:48;;;;;;;3.80;0.80;;;;;;;25.35;60.38;100171.06;8360735;28;20551;-61
2022/06/25 13:36:48;;;;;;;3.80;1.00;;;;;;;25.34;63.59;100168.53;8350009;28;20294;-61
2022/06/25 13:40:49;;;;;;;2.03;0.70;;;;;;;25.25;62.81;100164.44;8340641;28;20315;-61
2022/06/25 13:44:49;;;;;;;1.90;0.80;;;;;;;25.19;61.97;100165.41;8349768;28;20094;-61
2022/06/25 13:48:50;;;;;;;2.28;0.88;;;;;;;25.14;62.26;100163.34;8349902;28;20041;-61
2022/06/25 13:52:50;;;;;;;2.85;0.70;;;;;;;25.23;63.00;100167.44;8364112;28;20465;-61
2022/06/25 13:56:51;;;;;;;2.43;0.63;;;;;;;25.38;62.68;100170.56;8368581;28;20044;-61
2022/06/25 14:00:51;;;;;;;5.10;1.17;;;;;;;25.51;63.40;100167.50;8351826;28;20620;-61
2022/06/25 14:04:51;;;;;;;5.75;1.10;;;;;;;25.94;62.28;100156.72;8344861;28;20303;-61
2022/06/25 14:08:52;;;;;;;6.05;1.15;;;;;;;26.27;58.68;100148.47;8353534;28;20489;-61
2022/06/25 14:12:52;;;;;;;5.65;0.80;;;;;;;26.28;59.56;100146.53;8346506;28;20040;-61
2022/06/25 14:16:53;;;;;;;2.20;0.93;;;;;;;26.38;59.49;100150.31;8343324;28;20045;-61
2022/06/25 14:20:53;;;;;;;3.83;1.00;;;;;;;26.21;60.81;100141.16;8346699;28;20283;-61
2022/06/25 14:25:25;;;;;;;4.38;1.45;;;;;;;26.38;60.42;100139.22;8330613;28;20385;-61
2022/06/25 14:29:14;;;;;;;4.47;1.00;;;;;;;26.75;60.34;100126.53;8340398;28;20061;-61
2022/06/25 14:33:14;;;;;;;1.00;0.70;;;;;;;26.51;59.63;100127.81;8339299;28;20137;-61
2022/06/25 14:42:35;;;;;;;4.10;1.05;;;;;;;26.51;58.59;100130.59;8350734;28;20049;-61
2022/06/25 14:45:55;;;;;;;2.10;0.88;;;;;;;26.78;58.96;100128.78;8357392;28;20409;-61
2022/06/25 14:49:56;;;;;;;3.30;1.08;;;;;;;27.04;58.75;100116.13;8346110;28;20044;-61
2022/06/25 14:53:56;;;;;;;1.70;0.88;;;;;;;27.43;59.69;100114.13;8342613;28;20036;-61
2022/06/25 14:57:56;;;;;;;2.13;0.68;;;;;;;26.97;57.80;100114.63;8343364;28;20044;-61
2022/06/25 15:01:57;;;;;;;3.40;0.77;;;;;;;27.05;58.77;100108.63;8353606;28;20268;-61
2022/06/25 15:05:57;;;;;;;2.60;0.67;;;;;;;26.96;60.16;100101.84;8345405;28;20072;-61
2022/06/25 15:10:00;;;;;;;4.80;1.02;;;;;;;26.90;58.90;100100.94;8346268;28;20445;-61
2022/06/25 15:14:02;;;;;;;3.53;0.77;;;;;;;26.84;57.69;100097.25;8339199;28;20095;-61
2022/06/25 15:18:02;;;;;;;1.30;0.77;;;;;;;27.01;59.06;100101.94;8325660;28;20044;-61
2022/06/25 15:22:03;;;;;;;4.88;1.15;;;;;;;27.14;60.21;100107.09;8330643;28;20044;-61
2022/06/25 15:26:03;;;;;;;3.25;1.20;;;;;;;27.28;60.06;100100.06;8348459;28;20037;-61
2022/06/25 15:30:05;;;;;;;1.42;0.63;;;;;;;27.37;58.89;100087.41;8362126;28;20041;-61
2022/06/25 15:34:05;;;;;;;2.08;0.77;;;;;;;27.24;59.55;100094.22;8351685;28;20445;-61
2022/06/25 15:38:07;;;;;;;3.40;0.63;;;;;;;27.21;59.50;100088.28;8349251;28;20040;-61
2022/06/25 15:42:08;;;;;;;2.28;1.00;;;;;;;27.10;58.99;100080.94;8348857;28;20112;-61
2022/06/25 15:46:08;;;;;;;2.78;1.08;;;;;;;27.18;58.81;100086.88;8365986;28;20043;-61
2022/06/25 15:50:09;;;;;;;4.70;0.90;;;;;;;27.17;58.89;100084.38;8370160;28;20446;-61
2022/06/25 15:54:09;;;;;;;3.28;0.82;;;;;;;27.15;58.34;100083.78;8349868;28;20290;-61
2022/06/25 15:58:10;;;;;;;1.90;0.93;;;;;;;27.23;59.50;100086.09;8352416;28;20037;-61
2022/06/25 16:02:10;;;;;;;1.40;1.00;;;;;;;26.97;60.57;100081.31;8353547;28;20052;-61
2022/06/25 16:06:11;;;;;;;1.48;0.70;;;;;;;27.08;58.61;100078.41;8365104;28;20543;-61
2022/06/25 16:10:11;;;;;;;3.03;0.68;;;;;;;26.97;59.69;100067.44;8357539;28;20530;-61
2022/06/25 16:14:13;;;;;;;2.50;0.97;;;;;;;26.99;57.90;100065.25;8359764;28;20124;-61
2022/06/25 16:18:13;;;;;;;3.78;0.60;;;;;;;27.17;58.16;100064.94;8357096;28;20797;-61
2022/06/25 16:22:14;;;;;;;4.97;0.95;;;;;;;27.15;58.52;100053.25;8357337;28;20382;-61
2022/06/25 16:26:14;;;;;;;4.05;0.82;;;;;;;27.15;56.72;100051.31;8342115;28;20049;-61
2022/06/25 16:30:15;;;;;;;1.43;0.70;;;;;;;26.80;57.27;100046.16;8348559;28;20048;-60
2022/06/25 16:34:15;;;;;;;5.93;1.25;;;;;;;26.71;57.36;100050.47;8352777;28;20564;-61
2022/06/25 16:38:16;;;;;;;3.80;0.90;;;;;;;26.92;57.59;100050.75;8356614;28;20051;-61
2022/06/25 16:42:17;;;;;;;1.77;0.67;;;;;;;26.79;57.88;100040.84;8350817;28;20044;-60
2022/06/25 16:46:18;;;;;;;1.48;0.70;;;;;;;26.81;57.42;100049.78;8363514;28;20632;-60
2022/06/25 16:50:19;;;;;;;2.15;0.70;;;;;;;26.79;58.43;100033.38;8346535;28;20040;-61
2022/06/25 16:54:21;;;;;;;1.75;0.90;;;;;;;26.84;56.79;100027.88;8353436;28;20044;-61
2022/06/25 16:58:22;;;;;;;1.30;0.63;;;;;;;26.93;57.15;100030.22;8348806;28;20136;-61
2022/06/25 17:02:22;;;;;;;4.57;0.90;;;;;;;26.90;57.07;100025.19;8352962;28;20106;-61
2022/06/25 17:06:24;;;;;;;2.15;0.85;;;;;;;26.81;60.48;100022.84;8339390;28;20053;-61
2022/06/25 17:10:24;;;;;;;2.38;0.90;;;;;;;26.64;59.22;100016.53;8332576;28;20044;-61
2022/06/25 17:14:25;;;;;;;12.10;3.70;;;;;;;26.57;58.75;100029.72;8348167;28;20068;-61
2022/06/25 17:18:27;;;;;;;1.70;0.68;;;;;;;26.54;57.39;100019.16;8376976;27;20721;-61
2022/06/25 17:22:28;;;;;;;3.78;1.50;;;;;;;26.42;59.61;100018.41;8342344;28;20048;-61
2022/06/25 17:26:29;;;;;;;2.42;0.90;;;;;;;26.44;59.20;100024.53;8344984;28;20144;-61
2022/06/25 17:30:29;;;;;;;2.75;0.85;;;;;;;26.47;58.95;100021.25;8347833;28;20041;-61
2022/06/25 17:34:30;;;;;;;1.38;0.68;;;;;;;26.43;59.00;100014.53;8351641;28;20037;-61
2022/06/25 17:38:31;;;;;;;2.42;0.85;;;;;;;26.39;59.83;100021.69;8355943;28;20041;-61
2022/06/25 17:42:32;;;;;;;2.58;0.80;;;;;;;26.37;59.43;100014.72;8356105;28;20053;-61
2022/06/25 17:46:32;;;;;;;3.25;0.90;;;;;;;26.36;59.77;100019.44;8346119;28;20122;-61
2022/06/25 17:50:33;;;;;;;4.68;1.50;;;;;;;26.25;61.47;100016.75;8340135;28;20049;-61
2022/06/25 17:54:33;;;;;;;2.13;1.27;;;;;;;26.26;61.68;100010.94;8350109;28;20047;-61
2022/06/25 17:58:33;;;;;;;2.63;0.80;;;;;;;26.21;62.54;100016.44;8354675;28;20044;-61
2022/06/25 18:02:34;;;;;;;5.57;1.08;;;;;;;25.86;65.95;100029.66;8352931;28;20288;-61
2022/06/25 18:06:34;;;;;;;1.45;0.88;;;;;;;25.94;64.40;100032.03;8349180;28;20247;-61
2022/06/25 18:10:35;;;;;;;3.33;0.80;;;;;;;25.95;65.50;100032.88;8341822;28;20168;-61
2022/06/25 18:14:35;;;;;;;3.40;1.00;;;;;;;25.76;66.96;100035.03;8347424;28;20299;-62
2022/06/25 18:18:36;;;;;;;3.97;0.88;;;;;;;25.74;67.24;100041.94;8354991;28;20072;-62
2022/06/25 18:22:37;;;;;;;2.17;1.00;;;;;;;25.53;68.55;100032.44;8349627;28;20085;-60
2022/06/25 18:26:37;;;;;;;1.55;0.98;;;;;;;25.27;70.41;100027.47;8350759;28;21926;-60
2022/06/25 18:30:38;;;;;;;1.80;0.98;;;;;;;25.17;70.72;100035.56;8356901;28;20037;-60
2022/06/25 18:34:38;;;;;;;3.72;1.40;;;;;;;25.10;70.25;100028.50;8350373;28;20045;-60
2022/06/25 18:38:39;;;;;;;2.03;1.07;;;;;;;25.04;70.65;100031.16;8344756;28;20052;-60
2022/06/25 18:42:39;;;;;;;2.58;1.00;;;;;;;25.00;70.68;100029.13;8350184;28;21616;-60
2022/06/25 18:46:39;;;;;;;3.83;1.25;;;;;;;24.98;70.29;100031.31;8357260;28;20416;-61